createdAt,value
2018-12-23T00:00:05.055Z,12.37
2018-12-23T00:02:39.303Z,10.40
2018-12-23T00:05:14.488Z,8.73
2018-12-23T00:07:48.824Z,4.77
2018-12-23T00:10:23.154Z,3.90
2018-12-23T00:12:57.346Z,3.67
2018-12-23T00:15:31.647Z,2.37
2018-12-23T00:18:05.866Z,5.87
2018-12-23T00:20:40.194Z,5.67
2018-12-23T00:23:14.405Z,3.23
2018-12-23T00:25:48.781Z,6.13
2018-12-23T00:28:23.042Z,6.63
2018-12-23T00:30:57.257Z,3.13
2018-12-23T00:33:31.573Z,5.90
2018-12-23T00:36:05.960Z,6.93
2018-12-23T00:38:40.342Z,6.80
2018-12-23T00:41:14.537Z,5.53
2018-12-23T00:43:48.770Z,4.43
2018-12-23T00:46:23.214Z,2.60
2018-12-23T00:48:57.520Z,3.47
2018-12-23T00:51:31.922Z,3.80
2018-12-23T00:54:06.194Z,3.43
2018-12-23T00:56:40.423Z,3.63
2018-12-23T00:59:14.767Z,3.80
2018-12-23T01:01:49.084Z,3.77
2018-12-23T01:04:23.283Z,3.17
2018-12-23T01:06:57.769Z,2.90
2018-12-23T01:09:32.062Z,3.97
2018-12-23T01:12:07.048Z,2.17
2018-12-23T01:14:41.384Z,4.23
2018-12-23T01:17:15.886Z,4.00
2018-12-23T01:19:50.142Z,5.57
2018-12-23T01:22:24.373Z,6.27
2018-12-23T01:24:58.670Z,3.93
2018-12-23T01:27:33.018Z,5.20
2018-12-23T01:30:07.380Z,4.73
2018-12-23T01:32:41.731Z,4.23
2018-12-23T01:35:16.167Z,2.73
2018-12-23T01:37:50.553Z,6.87
2018-12-23T01:40:24.933Z,7.47
2018-12-23T01:42:59.154Z,3.60
2018-12-23T01:45:33.382Z,5.13
2018-12-23T01:48:07.893Z,2.13
2018-12-23T01:50:42.209Z,5.70
2018-12-23T01:53:16.476Z,3.30
2018-12-23T01:55:50.802Z,3.73
2018-12-23T01:58:25.057Z,4.47
2018-12-23T02:00:59.444Z,5.33
2018-12-23T02:03:33.774Z,4.40
2018-12-23T02:06:08.073Z,4.53
2018-12-23T02:08:42.408Z,5.13
2018-12-23T02:11:16.808Z,6.13
2018-12-23T02:13:51.147Z,3.30
2018-12-23T02:16:25.529Z,8.83
2018-12-23T02:18:59.995Z,3.90
2018-12-23T02:21:34.450Z,8.00
2018-12-23T02:24:08.662Z,5.60
2018-12-23T02:26:44.634Z,6.50
2018-12-23T02:29:18.983Z,6.70
2018-12-23T02:31:54.091Z,4.23
2018-12-23T02:34:28.358Z,4.63
2018-12-23T02:37:05.591Z,7.50
2018-12-23T02:39:39.822Z,5.93
2018-12-23T02:42:14.633Z,4.60
2018-12-23T02:44:49.262Z,4.73
2018-12-23T02:47:23.561Z,6.63
2018-12-23T02:49:57.895Z,7.60
2018-12-23T02:52:32.259Z,5.60
2018-12-23T02:55:06.673Z,8.20
2018-12-23T02:57:40.888Z,5.30
2018-12-23T03:00:15.095Z,3.93
2018-12-23T03:02:49.539Z,5.27
2018-12-23T03:05:23.814Z,3.60
2018-12-23T03:07:58.079Z,7.63
2018-12-23T03:10:32.520Z,5.83
2018-12-23T03:13:06.746Z,5.93
2018-12-23T03:15:41.082Z,4.63
2018-12-23T03:18:15.438Z,5.20
2018-12-23T03:20:49.982Z,7.23
2018-12-23T03:23:24.288Z,6.70
2018-12-23T03:25:58.646Z,7.37
2018-12-23T03:28:33.162Z,8.30
2018-12-23T03:31:07.596Z,5.23
2018-12-23T03:33:41.948Z,6.97
2018-12-23T03:36:16.483Z,3.87
2018-12-23T03:38:50.890Z,3.93
2018-12-23T03:41:25.518Z,6.63
2018-12-23T03:43:59.897Z,5.43
2018-12-23T03:46:34.276Z,6.80
2018-12-23T03:49:08.891Z,7.60
2018-12-23T03:51:43.112Z,5.87
2018-12-23T03:54:17.367Z,4.03
2018-12-23T03:56:51.624Z,7.00
2018-12-23T03:59:25.993Z,5.77
2018-12-23T04:02:00.237Z,4.90
2018-12-23T04:04:34.714Z,7.13
2018-12-23T04:07:08.950Z,8.90
2018-12-23T04:09:43.211Z,6.03
2018-12-23T04:12:17.501Z,4.03
2018-12-23T04:14:51.882Z,5.57
2018-12-23T04:17:26.237Z,5.33
2018-12-23T04:20:00.483Z,6.93
2018-12-23T04:22:44.533Z,6.30
2018-12-23T04:25:19.573Z,3.37
2018-12-23T04:27:59.536Z,4.33
2018-12-23T04:33:29.734Z,5.60
2018-12-23T04:36:08.989Z,3.20
2018-12-23T04:38:43.883Z,4.57
2018-12-23T04:41:30.415Z,7.07
2018-12-23T04:44:21.681Z,4.30
2018-12-23T04:50:15.494Z,7.60
2018-12-23T04:52:50.706Z,8.23
2018-12-23T04:55:47.783Z,2.57
2018-12-23T04:58:30.809Z,5.47
2018-12-23T05:01:05.847Z,4.80
2018-12-23T05:03:43.247Z,4.67
2018-12-23T05:06:28.196Z,5.53
2018-12-23T05:09:03.480Z,6.30
2018-12-23T05:11:40.804Z,4.87
2018-12-23T05:14:16.984Z,6.97
2018-12-23T05:16:52.424Z,4.20
2018-12-23T05:19:27.387Z,4.70
2018-12-23T05:24:55.448Z,3.93
2018-12-23T05:27:30.130Z,3.97
2018-12-23T05:30:16.135Z,4.03
2018-12-23T05:32:51.237Z,6.07
2018-12-23T05:35:26.561Z,7.67
2018-12-23T05:38:01.345Z,7.03
2018-12-23T05:40:51.438Z,8.93
2018-12-23T05:43:40.359Z,6.00
2018-12-23T05:46:30.354Z,4.00
2018-12-23T05:49:05.223Z,7.33
2018-12-23T05:51:48.000Z,4.10
2018-12-23T05:54:34.386Z,6.70
2018-12-23T05:57:09.967Z,5.27
2018-12-23T05:59:44.817Z,5.63
2018-12-23T06:03:15.309Z,5.03
2018-12-23T06:10:22.061Z,8.33
2018-12-23T06:13:31.048Z,7.10
2018-12-23T06:16:34.701Z,4.60
2018-12-23T06:19:59.240Z,5.77
2018-12-23T06:22:49.023Z,9.23
2018-12-23T06:25:46.860Z,5.90
2018-12-23T06:28:45.379Z,10.00
2018-12-23T06:31:41.546Z,4.60
2018-12-23T06:34:30.279Z,6.67
2018-12-23T06:37:20.785Z,7.53
2018-12-23T06:40:09.216Z,6.10
2018-12-23T06:42:58.508Z,4.53
2018-12-23T06:45:47.803Z,8.87
2018-12-23T06:48:37.391Z,6.83
2018-12-23T06:51:26.761Z,7.80
2018-12-23T06:54:16.410Z,6.07
2018-12-23T06:57:05.734Z,10.10
2018-12-23T06:59:55.434Z,9.43
2018-12-23T07:03:04.221Z,9.30
2018-12-23T07:05:53.611Z,11.93
2018-12-23T07:08:42.980Z,8.97
2018-12-23T07:11:32.623Z,10.73
2018-12-23T07:14:20.493Z,8.23
2018-12-23T07:17:09.855Z,14.87
2018-12-23T07:19:59.402Z,10.53
2018-12-23T07:22:49.065Z,12.43
2018-12-23T07:25:38.377Z,9.50
2018-12-23T07:28:27.685Z,10.20
2018-12-23T07:31:36.071Z,12.87
2018-12-23T07:34:25.582Z,28.87
2018-12-23T07:37:15.028Z,11.13
2018-12-23T07:40:04.414Z,10.30
2018-12-23T07:42:53.979Z,8.57
2018-12-23T07:45:43.350Z,10.47
2018-12-23T07:48:32.938Z,14.60
2018-12-23T07:51:22.320Z,11.30
2018-12-23T07:54:11.643Z,11.97
2018-12-23T07:57:00.934Z,9.00
2018-12-23T07:59:50.339Z,9.97
2018-12-23T08:02:39.738Z,11.60
2018-12-23T08:05:29.065Z,13.27
2018-12-23T08:08:36.040Z,16.27
2018-12-23T08:11:25.522Z,9.27
2018-12-23T08:14:14.913Z,16.23
2018-12-23T08:17:08.122Z,12.37
2018-12-23T08:19:57.712Z,12.27
2018-12-23T08:22:47.027Z,11.33
2018-12-23T08:25:35.710Z,9.03
2018-12-23T08:28:25.545Z,10.20
2018-12-23T08:31:14.843Z,11.37
2018-12-23T08:34:02.664Z,17.40
2018-12-23T08:36:54.952Z,10.63
2018-12-23T08:39:44.380Z,13.23
2018-12-23T08:42:32.258Z,11.73
2018-12-23T08:45:24.589Z,12.67
2018-12-23T08:48:14.176Z,14.33
2018-12-23T08:51:01.732Z,12.83
2018-12-23T08:53:49.658Z,8.57
2018-12-23T08:56:38.974Z,12.40
2018-12-23T08:59:28.368Z,14.23
2018-12-23T09:02:16.198Z,12.77
2018-12-23T09:05:04.551Z,17.20
2018-12-23T09:07:54.192Z,9.07
2018-12-23T09:11:02.678Z,8.57
2018-12-23T09:14:09.648Z,12.43
2018-12-23T09:16:59.395Z,8.33
2018-12-23T09:19:47.546Z,9.90
2018-12-23T09:22:37.238Z,12.67
2018-12-23T09:25:26.941Z,11.17
2018-12-23T09:28:16.314Z,10.27
2018-12-23T09:31:05.655Z,8.50
2018-12-23T09:33:54.973Z,19.37
2018-12-23T09:36:44.426Z,11.13
2018-12-23T09:39:32.437Z,9.47
2018-12-23T09:42:22.952Z,10.20
2018-12-23T09:45:12.563Z,9.50
2018-12-23T09:48:20.934Z,11.07
2018-12-23T09:51:10.329Z,11.60
2018-12-23T09:53:59.639Z,9.90
2018-12-23T09:56:47.550Z,11.13
2018-12-23T09:59:55.936Z,9.43
2018-12-23T10:02:45.853Z,10.57
2018-12-23T10:05:35.623Z,9.87
2018-12-23T10:08:25.017Z,12.43
2018-12-23T10:11:14.399Z,10.03
2018-12-23T10:14:03.761Z,9.77
2018-12-23T10:16:53.068Z,11.73
2018-12-23T10:19:42.625Z,9.07
2018-12-23T10:22:51.035Z,12.27
2018-12-23T10:25:40.341Z,15.20
2018-12-23T10:28:29.641Z,12.93
2018-12-23T10:31:19.039Z,10.00
2018-12-23T10:34:27.577Z,12.40
2018-12-23T10:37:28.291Z,11.97
2018-12-23T10:40:16.131Z,14.93
2018-12-23T10:43:05.791Z,10.97
2018-12-23T10:45:55.085Z,12.87
2018-12-23T10:48:44.365Z,9.20
2018-12-23T10:51:34.012Z,8.20
2018-12-23T10:54:23.655Z,9.23
2018-12-23T10:57:13.055Z,6.37
2018-12-23T11:00:02.733Z,8.93
2018-12-23T11:02:52.107Z,10.63
2018-12-23T11:05:41.466Z,9.50
2018-12-23T11:08:30.769Z,7.80
2018-12-23T11:11:20.158Z,10.83
2018-12-23T11:14:09.446Z,7.20
2018-12-23T11:16:58.742Z,7.97
2018-12-23T11:20:07.847Z,9.40
2018-12-23T11:22:57.746Z,8.03
2018-12-23T11:25:47.134Z,8.63
2018-12-23T11:28:36.443Z,6.07
2018-12-23T11:31:25.778Z,9.20
2018-12-23T11:34:15.320Z,7.97
2018-12-23T11:37:32.948Z,12.50
2018-12-23T11:40:40.780Z,7.77
2018-12-23T11:43:30.179Z,11.03
2018-12-23T11:46:41.403Z,9.37
2018-12-23T11:49:50.506Z,10.40
2018-12-23T11:55:30.629Z,8.47
2018-12-23T11:58:18.837Z,5.20
2018-12-23T12:01:08.763Z,13.00
2018-12-23T12:03:58.600Z,8.63
2018-12-23T12:07:07.209Z,8.90
2018-12-23T12:13:57.265Z,8.77
2018-12-23T12:16:47.952Z,10.40
2018-12-23T12:19:42.560Z,8.83
2018-12-23T12:24:19.537Z,7.80
2018-12-23T12:27:56.412Z,10.13
2018-12-23T12:30:45.104Z,13.07
2018-12-23T12:36:44.552Z,10.37
2018-12-23T12:39:34.450Z,8.67
2018-12-23T12:42:24.356Z,12.73
2018-12-23T12:48:56.797Z,8.77
2018-12-23T12:55:20.056Z,10.30
2018-12-23T12:58:09.681Z,16.10
2018-12-23T13:00:59.209Z,28.77
2018-12-23T13:03:48.796Z,22.27
2018-12-23T13:06:38.454Z,11.03
2018-12-23T13:09:28.050Z,11.03
2018-12-23T13:12:17.368Z,8.73
2018-12-23T13:15:06.930Z,11.67
2018-12-23T13:17:56.655Z,6.83
2018-12-23T13:21:06.086Z,10.53
2018-12-23T13:23:55.584Z,10.47
2018-12-23T13:27:04.060Z,7.97
2018-12-23T13:29:53.798Z,9.87
2018-12-23T13:32:43.198Z,8.20
2018-12-23T13:35:54.674Z,13.23
2018-12-23T13:38:44.014Z,10.73
2018-12-23T13:42:11.515Z,9.30
2018-12-23T13:45:39.034Z,8.30
2018-12-23T13:49:06.517Z,4.73
2018-12-23T13:52:34.084Z,5.43
2018-12-23T13:59:38.924Z,11.30
2018-12-23T14:02:50.581Z,5.80
2018-12-23T14:06:18.178Z,7.33
2018-12-23T14:09:45.661Z,6.87
2018-12-23T14:12:35.049Z,6.57
2018-12-23T14:15:24.385Z,7.47
2018-12-23T14:18:13.696Z,6.20
2018-12-23T14:21:22.158Z,10.43
2018-12-23T14:24:11.524Z,7.27
2018-12-23T14:27:01.046Z,5.83
2018-12-23T14:29:51.465Z,7.40
2018-12-23T14:32:40.767Z,5.77
2018-12-23T14:38:38.602Z,5.97
2018-12-23T14:41:28.101Z,4.97
2018-12-23T14:44:17.418Z,3.97
2018-12-23T14:47:06.905Z,4.57
2018-12-23T14:49:56.284Z,3.17
2018-12-23T14:52:47.467Z,2.50
2018-12-23T14:57:04.878Z,4.33
2018-12-23T14:59:52.801Z,2.80
2018-12-23T15:02:41.852Z,4.33
2018-12-23T15:05:30.012Z,5.33
2018-12-23T15:08:17.946Z,3.87
2018-12-23T15:11:05.942Z,5.57
2018-12-23T15:13:54.258Z,3.40
2018-12-23T15:16:42.841Z,3.23
2018-12-23T15:19:30.457Z,3.63
2018-12-23T15:22:18.209Z,3.10
2018-12-23T15:25:06.658Z,2.53
2018-12-23T15:27:54.441Z,3.67
2018-12-23T15:30:42.260Z,3.00
2018-12-23T15:33:30.385Z,2.20
2018-12-23T15:36:20.177Z,2.80
2018-12-23T15:39:08.945Z,2.57
2018-12-23T15:41:56.901Z,2.93
2018-12-23T15:44:45.459Z,3.07
2018-12-23T15:47:33.782Z,2.70
2018-12-23T15:50:23.830Z,4.73
2018-12-23T15:53:11.927Z,2.80
2018-12-23T15:56:00.094Z,3.37
2018-12-23T15:58:48.214Z,6.23
2018-12-23T16:01:36.156Z,8.43
2018-12-23T16:04:24.189Z,8.43
2018-12-23T16:07:11.959Z,8.57
2018-12-23T16:10:00.187Z,6.53
2018-12-23T16:12:48.365Z,9.03
2018-12-23T16:15:36.774Z,7.30
2018-12-23T16:18:25.135Z,10.00
2018-12-23T16:21:13.529Z,8.43
2018-12-23T16:24:01.717Z,8.67
2018-12-23T16:26:49.694Z,10.47
2018-12-23T16:29:37.737Z,8.53
2018-12-23T16:32:26.158Z,9.03
2018-12-23T16:35:14.179Z,8.20
2018-12-23T16:38:02.510Z,10.70
2018-12-23T16:40:50.649Z,10.87
2018-12-23T16:43:38.902Z,7.87
2018-12-23T16:46:26.490Z,5.60
2018-12-23T16:49:14.342Z,7.27
2018-12-23T16:52:02.342Z,7.63
2018-12-23T16:54:50.334Z,5.47
2018-12-23T16:57:38.945Z,6.17
2018-12-23T17:00:27.097Z,6.60
2018-12-23T17:03:15.724Z,4.40
2018-12-23T17:06:03.905Z,4.60
2018-12-23T17:08:52.185Z,6.60
2018-12-23T17:11:40.055Z,4.30
2018-12-23T17:14:27.912Z,6.07
2018-12-23T17:17:16.637Z,5.20
2018-12-23T17:20:05.798Z,5.27
2018-12-23T17:22:56.486Z,4.13
2018-12-23T17:25:44.445Z,5.80
2018-12-23T17:28:32.702Z,6.27
2018-12-23T17:31:20.655Z,6.10
2018-12-23T17:34:08.564Z,6.30
2018-12-23T17:36:56.391Z,5.47
2018-12-23T17:39:44.681Z,4.60
2018-12-23T17:42:32.683Z,4.17
2018-12-23T17:45:20.670Z,3.77
2018-12-23T17:48:08.293Z,3.43
2018-12-23T17:50:56.495Z,3.60
2018-12-23T17:53:44.144Z,4.23
2018-12-23T17:56:32.055Z,5.07
2018-12-23T17:59:21.766Z,3.07
2018-12-23T18:02:09.601Z,4.53
2018-12-23T18:04:57.827Z,4.17
2018-12-23T18:07:45.810Z,3.30
2018-12-23T18:10:35.295Z,4.00
2018-12-23T18:13:23.409Z,4.13
2018-12-23T18:16:11.934Z,2.97
2018-12-23T18:19:00.198Z,6.27
2018-12-23T18:21:48.188Z,7.33
2018-12-23T18:24:36.287Z,5.07
2018-12-23T18:27:24.571Z,2.93
2018-12-23T18:30:12.683Z,4.23
2018-12-23T18:33:00.743Z,11.90
2018-12-23T18:35:48.388Z,5.40
2018-12-23T18:38:36.359Z,3.97
2018-12-23T18:41:23.908Z,4.03
2018-12-23T18:44:11.619Z,3.53
2018-12-23T18:46:59.577Z,2.70
2018-12-23T18:49:47.365Z,2.90
2018-12-23T18:52:35.497Z,2.57
2018-12-23T18:55:23.845Z,3.37
2018-12-23T18:58:11.958Z,4.30
2018-12-23T19:01:02.307Z,3.10
2018-12-23T19:03:50.355Z,3.63
2018-12-23T19:06:38.665Z,3.37
2018-12-23T19:09:47.985Z,3.70
2018-12-23T19:13:19.935Z,2.80
2018-12-23T19:16:44.764Z,3.00
2018-12-23T19:20:19.733Z,3.63
2018-12-23T19:23:36.855Z,3.00
2018-12-23T19:26:58.295Z,2.30
2018-12-23T19:30:24.539Z,2.73
2018-12-23T19:33:37.665Z,2.20
2018-12-23T19:37:06.353Z,2.70
2018-12-23T19:40:38.598Z,3.00
2018-12-23T19:43:55.576Z,2.70
2018-12-23T19:47:19.844Z,2.13
2018-12-23T19:50:39.560Z,3.30
2018-12-23T19:53:58.260Z,2.30
2018-12-23T19:57:30.245Z,3.97
2018-12-23T20:00:46.654Z,2.30
2018-12-23T20:04:10.109Z,2.40
2018-12-23T20:07:38.230Z,2.03
2018-12-23T20:10:59.215Z,2.10
2018-12-23T20:14:22.842Z,1.93
2018-12-23T20:17:57.747Z,2.43
2018-12-23T20:21:29.416Z,1.80
2018-12-23T20:24:45.372Z,1.80
2018-12-23T20:28:14.354Z,2.33
2018-12-23T20:31:54.194Z,3.77
2018-12-23T20:35:28.949Z,1.83
2018-12-23T20:39:00.891Z,3.60
2018-12-23T20:42:31.963Z,2.50
2018-12-23T20:45:59.541Z,2.30
2018-12-23T20:49:48.841Z,2.70
2018-12-23T20:53:38.636Z,2.53
2018-12-23T21:01:20.224Z,2.47
2018-12-23T21:04:57.155Z,2.73
2018-12-23T21:08:43.514Z,2.53
2018-12-23T21:12:07.090Z,2.07
2018-12-23T21:15:41.553Z,3.50
2018-12-23T21:18:48.514Z,3.47
2018-12-23T21:21:52.232Z,3.33
2018-12-23T21:25:13.005Z,3.20
2018-12-23T21:28:42.841Z,2.67
2018-12-23T21:32:25.203Z,1.80
2018-12-23T21:35:50.326Z,1.80
2018-12-23T21:39:28.697Z,2.03
2018-12-23T21:42:52.960Z,1.70
2018-12-23T21:46:25.472Z,1.60
2018-12-23T21:49:59.484Z,1.80
2018-12-23T21:53:40.757Z,1.90
2018-12-23T21:57:23.804Z,1.60
2018-12-23T22:01:12.273Z,1.63
2018-12-23T22:04:40.229Z,2.03
2018-12-23T22:08:30.494Z,2.53
2018-12-23T22:11:33.500Z,1.33
2018-12-23T22:14:21.522Z,1.83
2018-12-23T22:17:09.768Z,1.63
2018-12-23T22:19:57.656Z,2.00
2018-12-23T22:22:45.578Z,1.90
2018-12-23T22:25:34.702Z,2.00
2018-12-23T22:28:24.163Z,1.87
2018-12-23T22:31:12.342Z,1.40
2018-12-23T22:34:00.605Z,1.47
2018-12-23T22:36:48.471Z,1.67
2018-12-23T22:39:36.368Z,1.60
2018-12-23T22:42:24.559Z,1.53
2018-12-23T22:45:12.551Z,2.43
2018-12-23T22:48:00.293Z,3.30
2018-12-23T22:50:48.472Z,1.90
2018-12-23T22:53:36.410Z,3.13
2018-12-23T22:56:24.193Z,1.70
2018-12-23T22:59:11.961Z,2.60
2018-12-23T23:02:00.182Z,2.07
2018-12-23T23:04:47.767Z,2.60
2018-12-23T23:07:36.014Z,1.33
2018-12-23T23:10:24.016Z,1.40
2018-12-23T23:13:18.435Z,1.37
2018-12-23T23:16:01.506Z,2.30
2018-12-23T23:18:49.542Z,1.47
2018-12-23T23:21:37.627Z,1.40
2018-12-23T23:24:25.475Z,2.20
2018-12-23T23:27:13.547Z,1.37
2018-12-23T23:30:01.565Z,1.53
2018-12-23T23:32:49.491Z,1.00
2018-12-23T23:35:37.090Z,1.63
2018-12-23T23:38:25.908Z,1.30
2018-12-23T23:41:14.111Z,1.30
2018-12-23T23:44:02.442Z,1.30
2018-12-23T23:46:50.374Z,1.50
2018-12-23T23:49:38.419Z,1.30
2018-12-23T23:52:26.076Z,1.30
2018-12-23T23:55:14.027Z,27.57
2018-12-23T23:58:01.863Z,1.20
